Time;durP1;ratioP1;P1;durP2;ratioP2;P2;SDS_P1;SDS_P2;PMS_P1;PMS_P2;Temp;Humidity;BMP_temperature;BMP_pressure;BME280_temperature;BME280_humidity;BME280_pressure;Samples;Min_cycle;Max_cycle;Signal;HPM_P1;HPM_P2
2023/04/20 00:01:26;;;;;;;16.48;9.88;;;;;;;8.27;82.51;100613.50;1697591;84;27348;-60
2023/04/20 00:03:52;;;;;;;19.60;10.38;;;;;;;8.26;82.75;100607.31;1711289;83;25488;-61
2023/04/20 00:06:20;;;;;;;18.07;9.90;;;;;;;8.28;82.70;100612.42;1728296;83;25603;-61
2023/04/20 00:08:46;;;;;;;18.77;10.78;;;;;;;8.27;82.96;100608.11;1728167;82;25721;-61
2023/04/20 00:11:13;;;;;;;17.67;10.30;;;;;;;8.29;83.10;100608.62;1712144;83;25447;-60
2023/04/20 00:13:39;;;;;;;17.40;10.65;;;;;;;8.30;83.21;100608.89;1728253;83;27981;-60
2023/04/20 00:16:06;;;;;;;17.00;9.80;;;;;;;8.32;83.43;100609.40;1697585;84;33227;-60
2023/04/20 00:18:32;;;;;;;20.10;10.58;;;;;;;8.33;83.35;100604.28;1712107;83;25443;-60
2023/04/20 00:20:58;;;;;;;20.60;11.00;;;;;;;8.34;83.76;100605.34;1728734;82;25621;-60
2023/04/20 00:23:25;;;;;;;20.12;10.55;;;;;;;8.37;83.69;100602.61;1712077;82;25595;-60
2023/04/20 00:25:51;;;;;;;19.40;10.78;;;;;;;8.38;83.80;100602.87;1712362;83;27404;-60
2023/04/20 00:28:17;;;;;;;19.15;10.98;;;;;;;8.40;83.86;100603.39;1728607;82;25657;-60
2023/04/20 00:30:43;;;;;;;17.57;10.70;;;;;;;8.41;83.93;100601.75;1765350;80;25492;-61
2023/04/20 00:33:10;;;;;;;18.40;9.75;;;;;;;8.44;84.07;100604.44;1765035;81;25695;-60
2023/04/20 00:35:36;;;;;;;18.73;10.13;;;;;;;8.46;83.91;100612.24;1728304;83;25614;-60
2023/04/20 00:38:02;;;;;;;19.90;10.55;;;;;;;8.47;83.87;100607.13;1764723;81;27344;-62
2023/04/20 00:40:29;;;;;;;19.77;10.58;;;;;;;8.49;83.98;100609.77;1728122;83;25456;-60
2023/04/20 00:42:56;;;;;;;19.10;10.72;;;;;;;8.50;83.97;100609.25;1764402;81;25627;-60
2023/04/20 00:45:22;;;;;;;24.20;10.82;;;;;;;8.49;83.83;100605.73;1764817;81;25560;-59
2023/04/20 00:47:50;;;;;;;20.48;11.75;;;;;;;8.50;83.90;100615.44;1765111;80;25597;-59
2023/04/20 00:50:16;;;;;;;15.93;10.90;;;;;;;8.51;83.98;100610.31;1764656;81;27872;-60
2023/04/20 00:52:44;;;;;;;19.55;11.05;;;;;;;8.53;83.92;100611.34;1728062;82;25393;-60
2023/04/20 00:55:11;;;;;;;21.82;10.85;;;;;;;8.55;83.85;100615.93;1764666;80;25405;-60
2023/04/20 00:57:38;;;;;;;16.62;10.48;;;;;;;8.56;83.89;100610.78;1728234;82;26429;-60
2023/04/20 01:00:07;;;;;;;17.10;10.45;;;;;;;8.58;83.88;100612.64;1764785;81;25615;-60
2023/04/20 01:02:33;;;;;;;18.27;10.58;;;;;;;8.57;83.82;100615.89;1764927;81;27528;-59
2023/04/20 01:05:00;;;;;;;18.42;10.50;;;;;;;8.58;83.87;100608.07;1764741;81;25625;-60
2023/04/20 01:07:28;;;;;;;15.35;9.98;;;;;;;8.58;84.01;100610.77;1727940;82;25563;-60
2023/04/20 01:09:55;;;;;;;15.32;8.93;;;;;;;8.60;83.98;100608.58;1728187;82;25631;-60
2023/04/20 01:12:21;;;;;;;18.27;9.83;;;;;;;8.62;83.95;100606.15;1764792;80;25610;-61
2023/04/20 01:14:48;;;;;;;18.12;10.72;;;;;;;8.64;84.19;100616.09;1728050;83;27408;-60
2023/04/20 01:17:14;;;;;;;16.73;10.23;;;;;;;8.63;84.17;100607.19;1764198;80;25503;-60
2023/04/20 01:19:40;;;;;;;18.00;10.00;;;;;;;8.65;84.09;100606.37;1764823;81;25615;-60
2023/04/20 01:22:07;;;;;;;17.35;9.83;;;;;;;8.65;83.99;100606.90;1760463;81;25684;-61
2023/04/20 01:24:33;;;;;;;17.82;10.00;;;;;;;8.65;83.93;100606.37;1737406;82;25457;-61
2023/04/20 01:27:00;;;;;;;17.60;10.05;;;;;;;8.67;83.93;100603.39;1776979;80;27390;-61
2023/04/20 01:29:27;;;;;;;16.20;9.78;;;;;;;8.67;83.87;100599.34;1739302;82;27188;-61
2023/04/20 01:31:53;;;;;;;16.15;9.25;;;;;;;8.67;83.74;100602.05;1776798;80;25609;-62
2023/04/20 01:34:19;;;;;;;16.67;9.98;;;;;;;8.68;83.72;100603.08;1738929;82;25614;-61
2023/04/20 01:36:45;;;;;;;20.27;10.70;;;;;;;8.67;83.77;100596.09;1739351;82;25406;-61
2023/04/20 01:39:12;;;;;;;14.55;9.68;;;;;;;8.69;83.73;100602.55;1776779;80;29592;-61
2023/04/20 01:41:39;;;;;;;15.83;9.18;;;;;;;8.68;83.57;100601.73;1739393;82;25567;-61
2023/04/20 01:44:06;;;;;;;15.68;9.95;;;;;;;8.70;83.73;100608.19;1776893;80;25545;-61
2023/04/20 01:46:32;;;;;;;16.27;9.53;;;;;;;8.70;83.70;100604.14;1739366;82;25756;-61
2023/04/20 01:48:58;;;;;;;18.65;10.78;;;;;;;8.69;83.53;100601.20;1755345;80;25629;-61
2023/04/20 01:51:25;;;;;;;15.58;9.63;;;;;;;8.69;83.64;100599.30;1739390;82;27385;-61
2023/04/20 01:53:51;;;;;;;16.27;9.85;;;;;;;8.69;83.70;100599.86;1777150;80;25606;-61
2023/04/20 01:56:17;;;;;;;17.15;9.93;;;;;;;8.70;83.68;100604.14;1739445;82;30079;-61
2023/04/20 01:58:43;;;;;;;15.32;9.58;;;;;;;8.70;83.77;100593.36;1776779;80;25658;-61
2023/04/20 02:01:09;;;;;;;15.90;9.75;;;;;;;8.70;83.76;100596.05;1739532;82;25536;-61
2023/04/20 02:03:35;;;;;;;17.62;10.03;;;;;;;8.68;83.49;100593.64;1776711;80;28108;-61
2023/04/20 02:06:02;;;;;;;15.58;9.30;;;;;;;8.69;83.51;100601.20;1738848;82;25382;-61
2023/04/20 02:08:28;;;;;;;14.07;9.53;;;;;;;8.69;83.61;100609.30;1776802;80;25598;-61
2023/04/20 02:10:54;;;;;;;16.05;9.83;;;;;;;8.69;83.60;100607.39;1739477;82;25207;-60
2023/04/20 02:13:20;;;;;;;20.80;10.58;;;;;;;8.68;83.53;100603.08;1777447;80;25391;-60
2023/04/20 02:15:46;;;;;;;15.20;10.32;;;;;;;8.64;83.57;100593.97;1776817;80;28614;-60
2023/04/20 02:18:14;;;;;;;19.27;10.95;;;;;;;8.68;83.52;100603.08;1739374;82;25410;-60
2023/04/20 02:20:43;;;;;;;15.18;9.83;;;;;;;8.67;83.48;100601.48;1739964;82;25541;-60
2023/04/20 02:23:10;;;;;;;20.85;10.45;;;;;;;8.67;83.44;100603.39;1754912;80;26172;-61
2023/04/20 02:25:36;;;;;;;19.50;11.00;;;;;;;8.66;83.30;100603.92;1813815;79;25627;-60
2023/04/20 02:28:04;;;;;;;16.57;10.30;;;;;;;8.65;83.31;100605.02;1814077;79;27454;-60
2023/04/20 02:30:30;;;;;;;13.40;9.93;;;;;;;8.64;83.28;100601.27;1775090;80;25490;-60
2023/04/20 02:32:57;;;;;;;15.38;10.00;;;;;;;8.64;83.12;100601.27;1775111;80;25448;-61
2023/04/20 02:35:23;;;;;;;18.02;10.40;;;;;;;8.62;83.14;100600.76;1774986;80;25589;-60
2023/04/20 02:37:50;;;;;;;17.77;10.78;;;;;;;8.61;83.03;100601.28;1814801;78;25416;-60
2023/04/20 02:40:16;;;;;;;17.52;10.82;;;;;;;8.58;83.03;100600.50;1775154;80;27310;-61
2023/04/20 02:42:43;;;;;;;19.82;9.98;;;;;;;8.57;83.09;100600.27;1813961;79;25403;-60
2023/04/20 02:45:10;;;;;;;16.73;9.78;;;;;;;8.57;83.20;100597.56;1814126;79;25590;-60
2023/04/20 02:47:36;;;;;;;18.15;10.15;;;;;;;8.56;83.14;100608.08;1814089;79;25665;-60
2023/04/20 02:50:04;;;;;;;20.70;10.50;;;;;;;8.55;83.26;100605.14;1775155;80;25377;-60
2023/04/20 02:52:30;;;;;;;15.08;9.63;;;;;;;8.53;83.29;100601.39;1813614;79;27446;-60
2023/04/20 02:54:57;;;;;;;18.30;10.08;;;;;;;8.54;83.41;100608.92;1814006;79;25359;-60
2023/04/20 02:57:24;;;;;;;15.10;9.73;;;;;;;8.54;83.43;100603.53;1775142;80;25626;-60
2023/04/20 02:59:50;;;;;;;17.90;10.60;;;;;;;8.54;83.51;100604.33;1813598;79;26052;-60
2023/04/20 03:02:17;;;;;;;14.78;10.20;;;;;;;8.53;83.51;100609.48;1774328;80;25560;-61
2023/04/20 03:04:43;;;;;;;16.52;10.08;;;;;;;8.52;83.52;100605.16;1774299;80;27422;-61
2023/04/20 03:07:10;;;;;;;17.35;10.35;;;;;;;8.53;83.59;100610.00;1774761;80;25739;-60
2023/04/20 03:09:36;;;;;;;14.95;9.70;;;;;;;8.53;83.64;100613.52;1774312;80;25597;-60
2023/04/20 03:12:05;;;;;;;19.57;9.43;;;;;;;8.52;83.70;100607.06;1775137;80;26080;-61
2023/04/20 03:14:31;;;;;;;13.03;7.55;;;;;;;8.54;83.77;100611.06;1813966;79;25395;-60
2023/04/20 03:16:57;;;;;;;15.28;10.53;;;;;;;8.54;83.72;100604.88;1814076;78;28024;-59
2023/04/20 03:19:23;;;;;;;16.97;10.28;;;;;;;8.54;83.70;100611.06;1814039;79;25583;-61
2023/04/20 03:21:50;;;;;;;19.60;10.35;;;;;;;8.53;83.53;100607.30;1814111;79;25527;-63
2023/04/20 03:24:16;;;;;;;17.67;11.22;;;;;;;8.51;83.41;100606.27;1771046;80;25612;-62
2023/04/20 03:26:43;;;;;;;17.82;10.53;;;;;;;8.48;83.41;100602.80;1770032;81;25368;-61
2023/04/20 03:29:09;;;;;;;15.83;10.43;;;;;;;8.46;83.32;100603.60;1769528;80;27323;-60
2023/04/20 03:31:35;;;;;;;16.60;10.72;;;;;;;8.43;83.27;100612.28;1770131;80;25638;-61
2023/04/20 03:34:02;;;;;;;19.70;11.20;;;;;;;8.41;83.17;100615.23;1769322;81;29984;-58
2023/04/20 03:36:28;;;;;;;20.35;11.43;;;;;;;8.39;83.29;100619.30;1808716;78;25608;-57
2023/04/20 03:38:54;;;;;;;19.52;11.50;;;;;;;8.37;83.39;100620.92;1769937;81;25461;-58
2023/04/20 03:41:21;;;;;;;17.50;10.45;;;;;;;8.36;83.37;100613.12;1770010;80;27318;-59
2023/04/20 03:43:47;;;;;;;19.87;10.70;;;;;;;8.33;83.34;100613.16;1808951;78;25597;-59
2023/04/20 03:46:13;;;;;;;17.27;11.43;;;;;;;8.32;83.45;100615.58;1808713;79;25566;-59
2023/04/20 03:48:39;;;;;;;17.20;10.50;;;;;;;8.30;83.47;100615.08;1770013;81;25673;-59
2023/04/20 03:51:06;;;;;;;15.63;10.28;;;;;;;8.31;83.63;100621.26;1770001;81;25443;-58
2023/04/20 03:53:32;;;;;;;19.48;11.30;;;;;;;8.30;83.79;100629.89;1770053;81;27223;-59
2023/04/20 03:55:58;;;;;;;18.27;10.65;;;;;;;8.29;83.83;100625.61;1769590;81;27222;-59
2023/04/20 03:58:24;;;;;;;17.85;10.82;;;;;;;8.30;83.93;100625.86;1770086;81;25556;-58
2023/04/20 04:00:51;;;;;;;17.95;11.50;;;;;;;8.31;84.00;100629.34;1809088;78;27823;-58
2023/04/20 04:03:17;;;;;;;18.40;11.68;;;;;;;8.32;84.13;100630.41;1770004;81;25629;-59
2023/04/20 04:05:43;;;;;;;20.23;11.80;;;;;;;8.34;84.10;100635.52;1809325;78;27389;-58
2023/04/20 04:08:09;;;;;;;21.15;12.25;;;;;;;8.33;84.08;100630.68;1769930;81;27218;-58
2023/04/20 04:10:35;;;;;;;20.08;11.68;;;;;;;8.36;84.12;100634.68;1770078;81;29722;-59
2023/04/20 04:13:02;;;;;;;18.42;12.33;;;;;;;8.37;84.10;100630.91;1808621;79;25690;-59
2023/04/20 04:15:28;;;;;;;18.32;11.18;;;;;;;8.40;84.24;100634.39;1808851;79;25665;-59
2023/04/20 04:17:55;;;;;;;15.72;10.50;;;;;;;8.41;84.37;100634.63;1808780;79;27980;-59
2023/04/20 04:20:21;;;;;;;16.00;11.38;;;;;;;8.43;84.37;100638.42;1808710;79;25604;-58
2023/04/20 04:22:47;;;;;;;21.20;11.85;;;;;;;8.45;84.51;100637.06;1769846;80;25629;-59
2023/04/20 04:25:13;;;;;;;18.85;12.07;;;;;;;8.47;84.52;100638.13;1777023;80;25599;-59
2023/04/20 04:27:40;;;;;;;25.97;11.73;;;;;;;8.50;84.48;100637.56;1739548;82;25644;-58
2023/04/20 04:30:09;;;;;;;22.55;12.05;;;;;;;8.49;84.59;100632.69;1776798;80;28077;-59
2023/04/20 04:32:36;;;;;;;17.27;11.40;;;;;;;8.54;84.85;100637.23;1739620;82;25208;-59
2023/04/20 04:35:03;;;;;;;17.73;11.03;;;;;;;8.55;84.98;100638.30;1776906;80;25433;-59
2023/04/20 04:37:29;;;;;;;23.10;11.38;;;;;;;8.62;85.23;100651.99;1739523;82;25639;-60
2023/04/20 04:39:57;;;;;;;20.05;12.43;;;;;;;8.67;85.54;100655.42;1739590;82;25420;-60
2023/04/20 04:42:23;;;;;;;20.35;12.37;;;;;;;8.72;85.64;100651.32;1739546;82;27423;-60
2023/04/20 04:44:51;;;;;;;16.80;11.18;;;;;;;8.79;85.51;100657.16;1739405;82;25784;-58
2023/04/20 04:47:20;;;;;;;18.40;11.43;;;;;;;8.83;85.28;100655.25;1739490;82;25615;-59
2023/04/20 04:49:45;;;;;;;17.77;11.75;;;;;;;8.89;85.36;100660.30;1739286;82;27758;-59
2023/04/20 04:52:12;;;;;;;19.80;11.65;;;;;;;8.94;85.33;100656.73;1739529;81;25572;-59
2023/04/20 04:54:38;;;;;;;18.35;11.35;;;;;;;8.98;85.50;100657.20;1739542;82;27273;-58
2023/04/20 04:57:04;;;;;;;17.00;11.33;;;;;;;9.08;85.71;100664.37;1739431;82;25642;-57
2023/04/20 04:59:31;;;;;;;18.65;11.75;;;;;;;9.16;85.66;100665.08;1739523;81;25632;-58
2023/04/20 05:01:57;;;;;;;17.85;11.30;;;;;;;9.25;85.35;100670.63;1739449;82;25577;-57
2023/04/20 05:04:23;;;;;;;19.15;11.33;;;;;;;9.35;85.19;100675.09;1739489;82;25370;-58
2023/04/20 05:06:49;;;;;;;16.75;11.83;;;;;;;9.44;85.47;100668.48;1739521;82;27342;-57
2023/04/20 05:09:15;;;;;;;22.35;11.63;;;;;;;9.52;85.42;100674.03;1739389;81;25450;-58
2023/04/20 05:11:42;;;;;;;17.87;10.80;;;;;;;9.64;85.42;100673.59;1739537;82;25554;-58
2023/04/20 05:14:08;;;;;;;18.37;11.73;;;;;;;9.76;85.75;100679.11;1739482;82;26316;-58
2023/04/20 05:16:34;;;;;;;18.35;11.22;;;;;;;9.87;84.93;100684.59;1739591;82;25393;-58
2023/04/20 05:19:00;;;;;;;15.75;10.50;;;;;;;9.96;84.59;100673.91;1739507;81;27331;-58
2023/04/20 05:21:27;;;;;;;20.08;10.53;;;;;;;10.03;84.13;100676.50;1739364;82;25685;-56
2023/04/20 05:23:53;;;;;;;20.72;11.03;;;;;;;10.08;83.45;100680.47;1746682;81;25618;-58
2023/04/20 05:26:19;;;;;;;26.77;10.78;;;;;;;10.14;83.29;100679.03;1738387;81;25637;-57
2023/04/20 05:28:47;;;;;;;22.00;11.05;;;;;;;10.19;82.82;100687.84;1803724;79;25527;-57
2023/04/20 05:31:13;;;;;;;19.05;10.43;;;;;;;10.23;82.89;100685.34;1762713;81;27331;-58
2023/04/20 05:33:40;;;;;;;18.65;10.72;;;;;;;10.29;82.89;100690.38;1803337;79;25825;-57
2023/04/20 05:36:10;;;;;;;16.97;11.78;;;;;;;10.35;82.71;100687.61;1762726;81;25459;-57
2023/04/20 05:38:36;;;;;;;15.43;10.32;;;;;;;10.41;82.51;100691.28;1734963;82;26407;-57
2023/04/20 05:41:05;;;;;;;15.70;11.35;;;;;;;10.46;82.21;100696.59;1762916;81;25607;-56
2023/04/20 05:43:31;;;;;;;17.32;9.45;;;;;;;10.53;82.18;100694.06;1762181;81;29582;-59
2023/04/20 05:45:58;;;;;;;18.25;10.70;;;;;;;10.57;81.68;100692.35;1732486;82;25699;-57
2023/04/20 05:48:27;;;;;;;19.30;10.20;;;;;;;10.63;81.56;100696.02;1761592;81;25604;-58
2023/04/20 05:50:54;;;;;;;16.75;9.95;;;;;;;10.72;81.68;100700.17;1761845;81;26243;-58
2023/04/20 05:53:20;;;;;;;15.30;9.50;;;;;;;10.86;81.74;100700.18;1761771;81;25736;-58
2023/04/20 05:55:47;;;;;;;18.77;9.33;;;;;;;11.02;81.45;100702.05;1761776;80;28000;-59
2023/04/20 05:58:14;;;;;;;19.32;10.23;;;;;;;11.19;81.53;100704.94;1761997;81;25691;-58
2023/04/20 06:00:40;;;;;;;15.18;9.55;;;;;;;11.38;81.09;100710.22;1762662;81;25626;-59
2023/04/20 06:03:07;;;;;;;16.10;9.43;;;;;;;11.51;80.73;100709.13;1762624;81;25591;-58
2023/04/20 06:05:33;;;;;;;15.53;9.63;;;;;;;11.65;80.09;100711.27;1762674;80;25387;-59
2023/04/20 06:07:59;;;;;;;16.93;9.98;;;;;;;11.69;79.32;100701.41;1762583;81;27338;-59
2023/04/20 06:10:26;;;;;;;22.73;12.00;;;;;;;11.83;79.07;100708.13;1762485;81;27217;-58
2023/04/20 06:12:52;;;;;;;20.48;9.13;;;;;;;11.97;79.02;100705.42;1762663;80;25615;-59
2023/04/20 06:15:19;;;;;;;17.02;8.83;;;;;;;12.25;79.45;100714.77;1762703;81;25607;-59
2023/04/20 06:17:45;;;;;;;17.30;8.73;;;;;;;12.53;78.56;100708.59;1762660;81;25612;-58
2023/04/20 06:20:11;;;;;;;11.18;7.65;;;;;;;12.79;77.08;100706.59;1762739;81;27233;-59
2023/04/20 06:22:44;;;;;;;12.98;7.90;;;;;;;13.09;77.78;100706.27;1762524;81;25794;-59
2023/04/20 06:25:12;;;;;;;13.68;7.87;;;;;;;13.46;77.42;100710.92;1771115;80;25578;-59
2023/04/20 06:27:39;;;;;;;14.20;7.33;;;;;;;13.83;76.45;100701.91;1775169;80;26215;-60
2023/04/20 06:30:07;;;;;;;12.18;7.60;;;;;;;14.20;75.47;100707.80;1753387;80;25754;-59
2023/04/20 06:32:33;;;;;;;11.10;6.97;;;;;;;14.56;74.87;100707.36;1775258;80;27351;-59
2023/04/20 06:35:00;;;;;;;14.75;6.80;;;;;;;14.92;73.34;100703.39;1775129;80;25184;-59
2023/04/20 06:37:26;;;;;;;10.65;6.78;;;;;;;15.25;72.65;100704.08;1775189;80;25633;-59
2023/04/20 06:39:53;;;;;;;17.02;6.80;;;;;;;15.59;72.07;100702.24;1775178;80;25876;-60
2023/04/20 06:42:21;;;;;;;10.85;5.87;;;;;;;15.86;70.91;100705.59;1775297;80;25434;-60
2023/04/20 06:44:47;;;;;;;13.83;5.67;;;;;;;15.98;69.08;100708.94;1775200;80;27301;-60
2023/04/20 06:47:14;;;;;;;13.40;5.95;;;;;;;16.20;68.00;100711.86;1775089;80;27131;-59
2023/04/20 06:49:40;;;;;;;19.05;7.17;;;;;;;16.43;66.21;100711.69;1752870;81;25534;-59
2023/04/20 06:52:06;;;;;;;9.80;5.47;;;;;;;16.69;66.44;100711.95;1790292;78;25755;-58
2023/04/20 06:54:33;;;;;;;12.07;5.60;;;;;;;17.02;64.91;100715.75;1813165;79;25389;-58
2023/04/20 06:57:00;;;;;;;14.13;5.92;;;;;;;17.26;62.50;100713.56;1814115;78;28167;-59
2023/04/20 06:59:26;;;;;;;12.18;5.83;;;;;;;17.36;62.99;100715.23;1814028;79;25649;-58
2023/04/20 07:01:53;;;;;;;11.93;5.45;;;;;;;17.59;63.28;100720.23;1814171;79;25382;-58
2023/04/20 07:04:19;;;;;;;12.95;5.35;;;;;;;17.84;61.63;100714.66;1814030;79;25614;-59
2023/04/20 07:06:47;;;;;;;10.65;5.03;;;;;;;18.10;60.87;100717.78;1814134;79;25370;-57
2023/04/20 07:09:13;;;;;;;14.25;4.85;;;;;;;18.40;59.56;100719.33;1813990;79;26488;-57
2023/04/20 07:11:39;;;;;;;15.32;5.15;;;;;;;18.65;58.75;100720.75;1814018;79;25611;-59
2023/04/20 07:14:05;;;;;;;15.08;4.67;;;;;;;18.79;57.87;100725.78;1814113;79;25450;-59
2023/04/20 07:16:32;;;;;;;10.08;4.90;;;;;;;19.11;57.46;100723.05;1814043;79;25625;-58
2023/04/20 07:18:58;;;;;;;17.10;4.90;;;;;;;19.43;57.69;100723.54;1814158;79;25364;-59
2023/04/20 07:21:25;;;;;;;15.45;5.10;;;;;;;19.80;56.87;100723.17;1814201;79;27387;-59
2023/04/20 07:23:52;;;;;;;12.78;4.45;;;;;;;20.13;55.57;100715.20;1814146;79;25617;-59
2023/04/20 07:26:18;;;;;;;11.45;4.25;;;;;;;20.34;52.92;100719.50;1814309;79;25477;-59
2023/04/20 07:28:44;;;;;;;17.98;4.85;;;;;;;20.37;52.63;100717.99;1814325;79;25608;-59
2023/04/20 07:31:10;;;;;;;24.15;5.05;;;;;;;20.62;52.89;100719.77;1814298;79;25576;-59
2023/04/20 07:33:36;;;;;;;14.25;4.85;;;;;;;20.92;52.13;100717.16;1814276;79;27320;-59
2023/04/20 07:36:03;;;;;;;18.15;4.95;;;;;;;21.21;51.86;100719.74;1814155;78;25550;-59
2023/04/20 07:38:30;;;;;;;13.32;4.95;;;;;;;21.49;51.39;100719.16;1814265;79;25582;-59
2023/04/20 07:40:56;;;;;;;15.30;5.05;;;;;;;21.88;51.46;100720.23;1814241;79;27715;-59
2023/04/20 07:43:22;;;;;;;15.53;4.90;;;;;;;22.11;50.15;100711.25;1814290;79;25606;-59
2023/04/20 07:45:48;;;;;;;13.58;4.47;;;;;;;22.43;49.96;100725.19;1814205;79;29501;-59
2023/04/20 07:48:15;;;;;;;13.53;5.33;;;;;;;22.74;48.88;100735.68;1814209;79;25431;-59
2023/04/20 07:50:41;;;;;;;16.23;4.40;;;;;;;22.88;46.92;100728.70;1814289;79;25444;-59
2023/04/20 07:53:07;;;;;;;19.65;5.70;;;;;;;22.88;45.76;100731.45;1814232;79;25670;-59
2023/04/20 07:55:34;;;;;;;17.75;5.75;;;;;;;22.95;46.20;100734.26;1814326;78;25528;-60
2023/04/20 07:58:01;;;;;;;13.28;4.83;;;;;;;23.15;45.64;100739.56;1814294;79;27997;-59
2023/04/20 08:00:27;;;;;;;10.90;4.05;;;;;;;23.39;45.57;100734.77;1814181;79;25420;-59
2023/04/20 08:02:53;;;;;;;16.05;4.53;;;;;;;23.60;44.32;100734.67;1814245;79;25444;-59
2023/04/20 08:05:21;;;;;;;15.68;4.65;;;;;;;23.40;43.63;100743.27;1814222;79;25613;-60
2023/04/20 08:07:47;;;;;;;20.05;5.50;;;;;;;23.18;43.80;100738.20;1814308;79;25684;-60
2023/04/20 08:10:14;;;;;;;21.00;4.30;;;;;;;22.98;43.48;100735.47;1814265;79;29430;-60
2023/04/20 08:12:40;;;;;;;17.15;5.03;;;;;;;22.79;42.81;100733.77;1814148;79;25381;-60
2023/04/20 08:15:09;;;;;;;13.75;3.60;;;;;;;22.70;43.29;100739.60;1814293;79;25366;-59
2023/04/20 08:17:35;;;;;;;22.07;3.83;;;;;;;22.59;42.14;100739.48;1814382;79;25625;-58
2023/04/20 08:20:03;;;;;;;16.50;4.80;;;;;;;22.67;42.77;100741.73;1814237;79;25169;-58
2023/04/20 08:22:31;;;;;;;19.60;4.35;;;;;;;23.09;43.11;100737.16;1814383;79;27380;-61
2023/04/20 08:24:57;;;;;;;12.50;4.65;;;;;;;23.37;42.83;100738.51;1806932;79;25546;-60
2023/04/20 08:27:27;;;;;;;12.88;3.77;;;;;;;23.73;42.76;100745.59;1793060;80;25432;-61
2023/04/20 08:29:53;;;;;;;19.00;3.85;;;;;;;23.93;41.84;100732.88;1792901;80;25593;-56
2023/04/20 08:32:21;;;;;;;13.40;3.60;;;;;;;24.08;41.18;100733.12;1793006;80;25529;-56
2023/04/20 08:34:48;;;;;;;15.50;3.42;;;;;;;24.56;39.90;100727.89;1792893;80;27375;-57
2023/04/20 08:37:14;;;;;;;16.87;4.20;;;;;;;24.75;39.67;100729.47;1792947;80;25530;-57
2023/04/20 08:39:41;;;;;;;11.48;3.98;;;;;;;25.09;39.37;100721.52;1792743;80;25440;-57
2023/04/20 08:42:07;;;;;;;15.03;3.65;;;;;;;25.47;39.68;100726.59;1792091;80;25739;-57
2023/04/20 08:44:34;;;;;;;13.08;4.00;;;;;;;25.90;38.80;100727.81;1791815;80;25944;-57
2023/04/20 08:47:00;;;;;;;16.35;3.60;;;;;;;26.24;38.39;100724.48;1792978;80;27308;-59
2023/04/20 08:49:28;;;;;;;13.80;3.92;;;;;;;26.53;36.20;100723.67;1792918;79;25394;-60
2023/04/20 08:51:55;;;;;;;10.05;3.10;;;;;;;26.61;36.20;100732.13;1793157;80;25603;-60
2023/04/20 08:54:21;;;;;;;12.50;3.90;;;;;;;26.82;36.16;100733.17;1792925;80;25678;-59
2023/04/20 08:56:48;;;;;;;9.65;4.20;;;;;;;27.00;35.24;100736.58;1793020;80;25629;-58
2023/04/20 08:59:15;;;;;;;9.00;3.40;;;;;;;27.08;35.35;100729.56;1793021;80;27491;-59
2023/04/20 09:01:44;;;;;;;11.30;3.00;;;;;;;27.02;34.18;100727.23;1792884;80;25598;-58
2023/04/20 09:04:21;;;;;;;9.53;3.30;;;;;;;27.21;34.23;100738.95;1793129;80;25576;-59
2023/04/20 09:06:52;;;;;;;8.25;4.03;;;;;;;27.31;32.84;100719.22;1792971;80;25649;-60
2023/04/20 09:09:21;;;;;;;11.08;3.08;;;;;;;27.18;33.25;100725.27;1792962;80;25451;-60
2023/04/20 09:12:02;;;;;;;12.80;3.55;;;;;;;27.31;32.41;100720.60;1792996;80;27457;-59
2023/04/20 09:14:32;;;;;;;6.70;3.00;;;;;;;27.60;33.50;100723.05;1792943;79;25539;-59
2023/04/20 09:17:01;;;;;;;11.78;3.10;;;;;;;28.02;33.31;100725.89;1791646;79;25747;-59
2023/04/20 09:19:30;;;;;;;9.63;2.90;;;;;;;28.12;30.84;100729.73;1793101;80;25628;-58
2023/04/20 09:22:05;;;;;;;6.90;2.52;;;;;;;27.55;30.25;100725.09;1793043;80;25412;-58
2023/04/20 09:24:33;;;;;;;8.08;2.67;;;;;;;27.13;29.80;100732.66;1791472;79;27983;-59
2023/04/20 09:27:01;;;;;;;12.68;3.02;;;;;;;27.00;29.60;100713.56;1814132;79;25379;-58
2023/04/20 09:29:29;;;;;;;10.23;2.95;;;;;;;26.91;29.63;100729.92;1814346;79;25569;-59
2023/04/20 09:31:57;;;;;;;12.13;2.85;;;;;;;26.89;30.37;100708.13;1814155;79;25700;-58
2023/04/20 09:34:24;;;;;;;9.43;2.60;;;;;;;27.05;30.02;100721.44;1814189;79;25647;-59
2023/04/20 09:36:56;;;;;;;7.70;2.75;;;;;;;27.06;29.19;100715.31;1814438;79;27302;-58
2023/04/20 09:39:25;;;;;;;12.85;3.08;;;;;;;26.78;28.64;100715.17;1814144;79;25675;-58
2023/04/20 09:41:54;;;;;;;12.63;3.00;;;;;;;26.39;28.56;100720.98;1814287;79;25432;-58
2023/04/20 09:44:20;;;;;;;10.53;3.10;;;;;;;26.51;29.11;100714.98;1814397;79;25595;-63
2023/04/20 09:46:46;;;;;;;11.73;2.70;;;;;;;26.26;29.25;100715.16;1814216;79;25631;-56
2023/04/20 09:49:14;;;;;;;12.43;3.25;;;;;;;26.23;29.51;100716.74;1814142;79;27373;-56
2023/04/20 09:51:45;;;;;;;12.95;2.83;;;;;;;26.64;30.66;100720.83;1814137;79;25530;-58
2023/04/20 09:54:14;;;;;;;7.85;3.15;;;;;;;27.26;29.69;100723.80;1814205;79;25617;-58
2023/04/20 09:56:41;;;;;;;12.43;2.65;;;;;;;27.38;27.91;100714.98;1814293;79;33036;-58
2023/04/20 09:59:08;;;;;;;8.23;2.90;;;;;;;27.49;28.31;100714.24;1814200;79;25612;-59
2023/04/20 10:01:36;;;;;;;5.05;2.35;;;;;;;27.58;25.85;100727.05;1814190;79;28032;-58
2023/04/20 10:04:13;;;;;;;8.28;2.83;;;;;;;27.45;25.81;100717.67;1814187;79;25612;-61
2023/04/20 10:06:43;;;;;;;6.65;2.60;;;;;;;27.05;25.26;100720.66;1814135;79;25362;-59
2023/04/20 10:09:15;;;;;;;11.30;2.52;;;;;;;26.76;26.12;100707.84;1809788;78;25623;-60
2023/04/20 10:11:43;;;;;;;7.00;2.77;;;;;;;26.71;26.29;100709.66;1812033;78;25431;-60
2023/04/20 10:14:22;;;;;;;8.65;2.83;;;;;;;26.27;25.66;100698.70;1814245;79;27061;-60
2023/04/20 10:17:05;;;;;;;12.13;3.15;;;;;;;25.83;25.12;100710.63;1814188;78;25721;-63
2023/04/20 10:19:46;;;;;;;12.47;2.50;;;;;;;25.32;26.46;100715.58;1814219;79;25609;-63
2023/04/20 10:22:17;;;;;;;6.75;2.90;;;;;;;25.61;27.44;100704.40;1814107;79;27794;-58
2023/04/20 10:24:44;;;;;;;11.68;3.70;;;;;;;26.27;27.50;100684.83;1811220;78;25621;-59
2023/04/20 10:27:19;;;;;;;5.37;2.95;;;;;;;26.44;26.54;100688.66;1776848;80;27396;-57
2023/04/20 10:29:47;;;;;;;6.40;2.67;;;;;;;26.32;27.00;100701.03;1739485;82;25617;-58
2023/04/20 10:32:25;;;;;;;9.13;3.02;;;;;;;26.46;26.23;100700.16;1739717;82;25413;-58
2023/04/20 10:35:05;;;;;;;6.55;2.35;;;;;;;26.50;26.34;100696.75;1739661;82;25685;-56
2023/04/20 10:37:33;;;;;;;7.67;2.60;;;;;;;26.97;25.98;100689.41;1739489;82;25458;-57
2023/04/20 10:40:03;;;;;;;10.93;3.02;;;;;;;26.96;25.50;100691.40;1739689;82;27311;-58
2023/04/20 10:42:35;;;;;;;9.05;3.25;;;;;;;27.04;26.23;100687.96;1739392;82;25652;-58
2023/04/20 10:45:03;;;;;;;37.95;32.08;;;;;;;26.78;26.16;100683.84;1717974;82;25645;-62
2023/04/20 10:47:33;;;;;;;10.40;4.87;;;;;;;26.95;26.16;100688.45;1734965;82;26290;-59
2023/04/20 10:50:12;;;;;;;7.17;2.67;;;;;;;27.33;24.94;100701.56;1739642;81;25409;-57
2023/04/20 10:52:42;;;;;;;8.15;3.47;;;;;;;27.16;24.91;100681.09;1739878;81;27319;-58
2023/04/20 10:55:22;;;;;;;10.70;3.80;;;;;;;27.43;25.43;100685.38;1739444;81;25612;-58
2023/04/20 10:57:50;;;;;;;9.10;3.25;;;;;;;27.90;25.76;100689.69;1739516;81;25459;-62
2023/04/20 11:00:21;;;;;;;8.90;3.20;;;;;;;28.31;25.75;100680.97;1739715;81;25650;-59
2023/04/20 11:02:58;;;;;;;6.00;3.10;;;;;;;28.84;26.13;100679.31;1739591;81;25559;-60
2023/04/20 11:05:26;;;;;;;10.90;3.40;;;;;;;29.08;25.64;100683.42;1739788;82;27258;-60
2023/04/20 11:07:56;;;;;;;7.47;3.70;;;;;;;29.43;25.05;100679.16;1739511;81;25753;-60
2023/04/20 11:10:39;;;;;;;4.90;3.02;;;;;;;29.51;24.92;100675.63;1739217;81;25672;-59
2023/04/20 11:13:06;;;;;;;6.25;3.52;;;;;;;29.49;24.65;100675.28;1739594;82;25623;-59
2023/04/20 11:15:34;;;;;;;9.83;3.62;;;;;;;29.40;24.54;100677.23;1739420;82;25432;-60
2023/04/20 11:18:08;;;;;;;6.30;2.93;;;;;;;29.39;23.87;100672.89;1739712;82;27307;-61
2023/04/20 11:20:35;;;;;;;9.05;3.40;;;;;;;28.96;23.03;100669.55;1739351;82;25731;-60